Time;durP1;ratioP1;P1;durP2;ratioP2;P2;SDS_P1;SDS_P2;PMS_P1;PMS_P2;Temp;Humidity;BMP_temperature;BMP_pressure;BME280_temperature;BME280_humidity;BME280_pressure;Samples;Min_cycle;Max_cycle;Signal;HPM_P1;HPM_P2
2023/10/28 00:01:15;;;;;;;2.47;0.85;;;11.30;1.00;;;;;;5051440;28;20036;-81
2023/10/28 00:03:42;;;;;;;0.10;0.10;;;11.40;1.00;;;;;;5036025;28;20033;-82
2023/10/28 00:06:09;;;;;;;0.20;0.20;;;11.40;1.00;;;;;;5048116;28;20021;-81
2023/10/28 00:08:36;;;;;;;0.10;0.10;;;11.30;1.00;;;;;;5051330;28;20025;-80
2023/10/28 00:11:04;;;;;;;0.10;0.10;;;11.30;1.00;;;;;;5046830;28;20033;-82
2023/10/28 00:13:30;;;;;;;0.10;0.10;;;11.30;3.60;;;;;;5051120;28;20040;-80
2023/10/28 00:15:57;;;;;;;2.63;1.35;;;11.30;10.60;;;;;;5047439;28;20049;-79
2023/10/28 00:18:24;;;;;;;0.15;0.15;;;11.30;18.50;;;;;;5050937;28;20104;-80
2023/10/28 00:20:50;;;;;;;0.50;0.40;;;11.30;25.40;;;;;;5048687;28;20028;-80
2023/10/28 00:23:17;;;;;;;0.10;0.10;;;11.20;40.20;;;;;;5050736;28;20035;-80
2023/10/28 00:25:43;;;;;;;0.00;0.00;;;11.20;56.70;;;;;;5048606;28;20041;-81
2023/10/28 00:28:09;;;;;;;0.10;0.10;;;11.20;69.80;;;;;;5050792;28;20044;-80
2023/10/28 00:30:40;;;;;;;0.00;0.00;;;11.10;83.50;;;;;;5049947;28;20041;-81
2023/10/28 00:33:06;;;;;;;0.55;0.55;;;11.10;92.40;;;;;;5050248;28;20037;-80
2023/10/28 00:35:33;;;;;;;0.08;0.08;;;11.10;99.90;;;;;;5028817;28;20037;-81
2023/10/28 00:37:59;;;;;;;0.15;0.15;;;11.10;99.90;;;;;;5049768;28;20033;-83
2023/10/28 00:40:30;;;;;;;0.00;0.00;;;11.10;99.90;;;;;;5048670;28;20029;-81
2023/10/28 00:42:58;;;;;;;0.25;0.20;;;11.00;99.90;;;;;;5049505;28;20032;-81
2023/10/28 00:45:24;;;;;;;0.10;0.10;;;11.00;99.90;;;;;;5016369;28;20037;-81
2023/10/28 00:47:54;;;;;;;0.10;0.10;;;11.00;99.90;;;;;;5047691;28;20030;-79
2023/10/28 00:50:24;;;;;;;0.00;0.00;;;11.00;99.90;;;;;;5022224;28;20033;-81
2023/10/28 00:52:55;;;;;;;0.10;0.10;;;11.00;99.90;;;;;;5046988;28;20040;-80
2023/10/28 00:55:23;;;;;;;0.10;0.10;;;10.90;99.90;;;;;;5027453;28;20045;-79
2023/10/28 00:57:50;;;;;;;0.10;0.10;;;10.90;99.90;;;;;;5032994;28;20044;-80
2023/10/28 01:00:17;;;;;;;0.10;0.10;;;10.90;99.90;;;;;;5049634;28;20041;-81
2023/10/28 01:02:44;;;;;;;0.10;0.10;;;10.90;99.90;;;;;;5048696;28;20454;-81
2023/10/28 01:05:11;;;;;;;0.10;0.10;;;10.90;99.90;;;;;;5051102;28;20541;-79
2023/10/28 01:07:39;;;;;;;0.10;0.10;;;10.90;99.90;;;;;;5054184;28;20048;-82
2023/10/28 01:10:08;;;;;;;0.20;0.20;;;10.90;99.90;;;;;;5049333;28;20041;-80
2023/10/28 01:12:35;;;;;;;0.30;0.30;;;10.90;99.90;;;;;;5053525;28;20052;-81
2023/10/28 01:15:02;;;;;;;1.77;0.20;;;10.90;99.90;;;;;;5051529;28;20037;-78
2023/10/28 01:17:29;;;;;;;2.50;0.30;;;10.90;99.90;;;;;;5050689;28;20037;-80
2023/10/28 01:19:58;;;;;;;0.05;0.05;;;11.00;99.90;;;;;;5052079;28;20056;-81
2023/10/28 01:22:24;;;;;;;0.25;0.25;;;10.90;99.90;;;;;;5035393;28;20050;-80
2023/10/28 01:24:51;;;;;;;1.05;0.32;;;11.00;99.90;;;;;;5053720;28;20410;-79
2023/10/28 01:27:20;;;;;;;0.00;0.00;;;10.90;99.90;;;;;;5052824;28;20033;-79
2023/10/28 01:29:47;;;;;;;0.20;0.20;;;11.00;89.50;;;;;;5034567;28;20047;-81
2023/10/28 01:32:14;;;;;;;0.00;0.00;;;11.00;59.70;;;;;;5053010;28;20120;-81
2023/10/28 01:34:52;;;;;;;0.10;0.10;;;11.00;40.10;;;;;;5052547;28;20029;-81
2023/10/28 01:37:20;;;;;;;0.00;0.00;;;11.00;21.80;;;;;;5051299;28;20037;-80
2023/10/28 01:39:48;;;;;;;0.10;0.10;;;11.00;14.60;;;;;;5051343;28;20378;-80
2023/10/28 01:42:15;;;;;;;0.10;0.10;;;11.00;14.90;;;;;;5051598;28;20038;-81
2023/10/28 01:44:41;;;;;;;0.10;0.10;;;11.00;8.50;;;;;;5051284;28;20347;-82
2023/10/28 01:47:08;;;;;;;0.10;0.10;;;11.00;1.00;;;;;;5049416;28;20390;-81
2023/10/28 01:49:35;;;;;;;0.00;0.00;;;11.00;1.00;;;;;;5054089;28;20036;-81
2023/10/28 01:52:03;;;;;;;0.00;0.00;;;11.00;1.00;;;;;;5051790;28;20041;-81
2023/10/28 01:54:30;;;;;;;0.08;0.08;;;11.00;1.00;;;;;;5053611;28;20041;-80
2023/10/28 01:57:00;;;;;;;0.00;0.00;;;10.90;1.00;;;;;;5049463;28;20033;-79
2023/10/28 01:59:26;;;;;;;0.03;0.03;;;10.90;1.00;;;;;;5025156;28;20053;-76
2023/10/28 02:01:53;;;;;;;0.08;0.08;;;10.90;1.00;;;;;;5029605;28;20390;-78
2023/10/28 02:04:19;;;;;;;0.22;0.22;;;10.80;1.00;;;;;;5052318;28;20473;-80
2023/10/28 02:06:49;;;;;;;0.10;0.10;;;10.90;1.00;;;;;;5057117;28;20143;-81
2023/10/28 02:09:17;;;;;;;0.10;0.10;;;10.90;1.00;;;;;;5037140;28;20036;-80
2023/10/28 02:11:44;;;;;;;0.08;0.03;;;10.90;1.00;;;;;;5059921;28;20390;-80
2023/10/28 02:14:11;;;;;;;1.75;0.98;;;10.90;1.00;;;;;;5056114;28;20052;-80
2023/10/28 02:16:38;;;;;;;0.00;0.00;;;10.90;1.00;;;;;;5049854;28;20041;-79
2023/10/28 02:19:05;;;;;;;0.10;0.10;;;10.90;1.00;;;;;;5034767;28;20080;-79
2023/10/28 02:21:32;;;;;;;0.00;0.00;;;10.90;1.00;;;;;;5034934;28;20052;-79
2023/10/28 02:24:00;;;;;;;0.30;0.30;;;10.90;1.00;;;;;;5050013;28;20048;-79
2023/10/28 02:26:26;;;;;;;0.10;0.10;;;10.90;1.00;;;;;;5027740;28;20041;-79
2023/10/28 02:28:53;;;;;;;0.10;0.10;;;10.90;1.00;;;;;;5050486;28;20045;-80
2023/10/28 02:31:19;;;;;;;0.10;0.10;;;10.90;1.00;;;;;;5052407;28;20049;-80
2023/10/28 02:33:46;;;;;;;1.35;0.63;;;10.90;1.00;;;;;;5050007;28;20053;-79
2023/10/28 02:36:12;;;;;;;0.10;0.10;;;10.90;1.00;;;;;;5050643;28;20033;-80
2023/10/28 02:38:40;;;;;;;0.35;0.35;;;10.90;1.00;;;;;;5035409;28;20052;-80
2023/10/28 02:41:07;;;;;;;0.10;0.10;;;10.80;1.00;;;;;;5050278;28;20029;-79
2023/10/28 02:43:38;;;;;;;0.10;0.10;;;10.80;1.00;;;;;;5050510;28;20032;-80
2023/10/28 02:46:06;;;;;;;0.20;0.20;;;10.80;1.00;;;;;;5050357;28;20032;-79
2023/10/28 02:48:32;;;;;;;0.00;0.00;;;10.70;1.00;;;;;;5035386;28;20037;-80
2023/10/28 02:51:06;;;;;;;0.00;0.00;;;10.60;1.00;;;;;;5038439;28;20482;-79
2023/10/28 02:53:34;;;;;;;0.00;0.00;;;10.50;1.00;;;;;;5051798;28;20044;-80
2023/10/28 02:56:04;;;;;;;0.00;0.00;;;10.50;1.00;;;;;;5047820;28;20049;-79
2023/10/28 02:58:31;;;;;;;0.10;0.10;;;10.40;1.00;;;;;;5053502;28;20032;-80
2023/10/28 03:01:06;;;;;;;0.10;0.10;;;10.40;1.00;;;;;;5039387;28;20041;-79
2023/10/28 03:03:32;;;;;;;0.10;0.10;;;10.40;1.00;;;;;;5050396;28;20036;-79
2023/10/28 03:05:58;;;;;;;0.10;0.10;;;10.40;1.00;;;;;;5049979;28;20024;-80
2023/10/28 03:08:24;;;;;;;0.10;0.10;;;10.40;1.00;;;;;;5049543;28;20040;-80
2023/10/28 03:10:51;;;;;;;0.08;0.08;;;10.50;1.00;;;;;;5049830;28;20029;-80
2023/10/28 03:13:17;;;;;;;0.20;0.20;;;10.50;1.00;;;;;;5033241;28;20057;-79
2023/10/28 03:15:46;;;;;;;0.00;0.00;;;10.40;1.00;;;;;;5048500;28;20052;-81
2023/10/28 03:18:13;;;;;;;0.10;0.10;;;10.30;1.00;;;;;;5051693;28;20041;-80
2023/10/28 03:20:40;;;;;;;0.00;0.00;;;10.30;1.00;;;;;;5049588;28;20043;-80
2023/10/28 03:23:06;;;;;;;0.47;0.38;;;10.30;1.00;;;;;;5050778;28;20044;-80
2023/10/28 03:25:32;;;;;;;0.10;0.10;;;10.30;1.00;;;;;;5030230;28;20045;-80
2023/10/28 03:28:02;;;;;;;0.00;0.00;;;10.30;1.00;;;;;;5048906;28;20029;-80
2023/10/28 03:30:28;;;;;;;0.00;0.00;;;10.30;1.00;;;;;;5052058;28;20037;-80
2023/10/28 03:32:54;;;;;;;0.10;0.10;;;10.40;1.00;;;;;;5050300;28;20032;-81
2023/10/28 03:35:20;;;;;;;0.00;0.00;;;10.40;1.00;;;;;;5035719;28;20041;-79
2023/10/28 03:37:47;;;;;;;0.10;0.10;;;10.50;1.00;;;;;;5049953;28;20033;-80
2023/10/28 03:40:14;;;;;;;0.10;0.10;;;10.50;1.00;;;;;;5050527;28;20045;-80
2023/10/28 03:42:40;;;;;;;0.43;0.32;;;10.50;1.00;;;;;;5038852;28;20415;-80
2023/10/28 03:45:09;;;;;;;0.05;0.05;;;10.50;1.00;;;;;;5047260;28;20032;-79
2023/10/28 03:47:38;;;;;;;1.33;0.30;;;10.50;1.00;;;;;;5048748;28;20048;-80
2023/10/28 03:50:05;;;;;;;0.10;0.10;;;10.50;1.00;;;;;;5050128;28;20029;-80
2023/10/28 03:52:32;;;;;;;2.78;0.80;;;10.50;1.00;;;;;;5033972;28;20037;-79
2023/10/28 03:54:59;;;;;;;0.75;0.75;;;10.60;1.00;;;;;;5050900;28;20441;-79
2023/10/28 03:57:25;;;;;;;0.10;0.10;;;10.60;1.00;;;;;;5047031;28;20036;-79
2023/10/28 03:59:51;;;;;;;0.43;0.43;;;10.60;1.00;;;;;;5050691;28;20033;-79
2023/10/28 04:02:20;;;;;;;0.00;0.00;;;10.60;1.00;;;;;;5049440;28;20040;-78
2023/10/28 04:04:46;;;;;;;0.20;0.20;;;10.60;1.00;;;;;;5050752;28;20397;-78
2023/10/28 04:07:12;;;;;;;1.88;0.43;;;10.60;1.00;;;;;;5046101;28;20462;-79
2023/10/28 04:09:39;;;;;;;0.03;0.03;;;10.60;1.00;;;;;;5049684;28;20056;-80
2023/10/28 04:12:06;;;;;;;0.40;0.40;;;10.60;1.00;;;;;;5050261;28;20041;-80
2023/10/28 04:14:33;;;;;;;0.03;0.03;;;10.60;1.00;;;;;;5049688;28;20462;-81
2023/10/28 04:16:59;;;;;;;3.70;0.52;;;10.60;1.20;;;;;;5047719;28;20060;-80
2023/10/28 04:19:25;;;;;;;0.10;0.10;;;10.60;1.00;;;;;;5047228;28;20026;-80
2023/10/28 04:21:52;;;;;;;0.35;0.35;;;10.60;1.00;;;;;;5028818;28;20048;-80
2023/10/28 04:24:18;;;;;;;0.20;0.20;;;10.60;1.00;;;;;;5045472;28;20096;-80
2023/10/28 04:26:44;;;;;;;0.10;0.10;;;10.60;1.00;;;;;;5048089;28;20029;-79
2023/10/28 04:29:10;;;;;;;0.10;0.10;;;10.60;1.00;;;;;;5049419;28;20490;-80
2023/10/28 04:31:36;;;;;;;0.20;0.20;;;10.60;1.00;;;;;;5050202;28;20041;-80
2023/10/28 04:34:04;;;;;;;5.35;1.55;;;10.60;1.00;;;;;;5050237;28;20041;-80
2023/10/28 04:36:30;;;;;;;0.28;0.25;;;10.60;1.00;;;;;;5049334;28;20034;-80
2023/10/28 04:38:56;;;;;;;0.45;0.45;;;10.60;1.00;;;;;;5049951;28;20470;-81
2023/10/28 04:41:22;;;;;;;0.90;0.47;;;10.60;1.00;;;;;;5050806;28;20302;-81
2023/10/28 04:43:49;;;;;;;0.30;0.30;;;10.60;1.00;;;;;;5047708;28;20028;-81
2023/10/28 04:46:15;;;;;;;0.10;0.10;;;10.60;1.00;;;;;;5043963;28;20033;-81
2023/10/28 04:48:46;;;;;;;0.30;0.30;;;10.60;1.00;;;;;;5051180;28;20041;-80
2023/10/28 04:51:13;;;;;;;;;;;10.60;1.00;;;;;;5052002;28;20025;-81
2023/10/28 04:53:39;;;;;;;0.10;0.10;;;10.60;1.00;;;;;;5057135;28;19924;-79
2023/10/28 04:56:08;;;;;;;0.10;0.10;;;10.60;1.00;;;;;;5032670;28;20037;-79
2023/10/28 04:58:35;;;;;;;0.00;0.00;;;10.60;1.00;;;;;;5050963;28;20024;-80
2023/10/28 05:01:01;;;;;;;0.55;0.55;;;10.60;1.00;;;;;;5050405;28;20409;-79
2023/10/28 05:03:28;;;;;;;0.00;0.00;;;10.50;1.00;;;;;;5049106;28;20059;-79
2023/10/28 05:05:54;;;;;;;0.10;0.10;;;10.50;1.00;;;;;;5031035;28;20048;-81
2023/10/28 05:08:21;;;;;;;0.00;0.00;;;10.50;1.00;;;;;;5049452;28;20034;-80
2023/10/28 05:10:47;;;;;;;0.80;0.68;;;10.50;5.40;;;;;;5049112;28;20056;-80
2023/10/28 05:13:13;;;;;;;0.13;0.13;;;10.50;5.20;;;;;;5048298;28;20032;-80
2023/10/28 05:15:40;;;;;;;0.15;0.15;;;10.50;6.90;;;;;;5048637;28;20048;-80
2023/10/28 05:18:06;;;;;;;0.10;0.10;;;10.50;9.50;;;;;;5032506;28;20033;-80
2023/10/28 05:20:35;;;;;;;0.20;0.15;;;10.50;6.90;;;;;;5050801;28;20363;-81
2023/10/28 05:23:01;;;;;;;0.05;0.05;;;10.40;6.40;;;;;;5049648;28;20060;-80
2023/10/28 05:25:28;;;;;;;0.00;0.00;;;10.30;8.30;;;;;;5049683;28;20355;-80
2023/10/28 05:27:54;;;;;;;0.10;0.10;;;10.30;9.50;;;;;;5031632;28;20479;-80
2023/10/28 05:30:20;;;;;;;0.20;0.20;;;10.20;18.60;;;;;;5048248;28;20036;-80
2023/10/28 05:32:47;;;;;;;0.30;0.30;;;10.20;27.90;;;;;;5048223;28;20489;-80
2023/10/28 05:35:13;;;;;;;0.10;0.10;;;10.20;34.30;;;;;;5038562;28;20040;-78
2023/10/28 05:37:39;;;;;;;0.00;0.00;;;10.20;36.90;;;;;;5040194;28;20047;-80
2023/10/28 05:40:13;;;;;;;0.10;0.10;;;10.20;31.90;;;;;;5050394;28;20041;-79
2023/10/28 05:42:39;;;;;;;0.10;0.10;;;10.30;25.60;;;;;;5045681;28;20037;-80
2023/10/28 05:45:07;;;;;;;1.85;0.25;;;10.30;23.30;;;;;;5046752;28;20030;-79
2023/10/28 05:47:34;;;;;;;0.10;0.10;;;10.30;23.60;;;;;;5047315;28;20037;-80
2023/10/28 05:50:07;;;;;;;0.00;0.00;;;10.30;15.80;;;;;;5048658;28;20024;-80
2023/10/28 05:52:38;;;;;;;0.00;0.00;;;10.30;10.60;;;;;;5052430;28;20044;-79
2023/10/28 05:55:05;;;;;;;;;;;10.40;2.80;;;;;;5057552;28;20040;-78
2023/10/28 05:57:31;;;;;;;0.10;0.10;;;10.40;1.00;;;;;;5052658;28;19916;-79
2023/10/28 05:59:57;;;;;;;0.17;0.17;;;10.50;1.00;;;;;;5049081;28;20171;-80
2023/10/28 06:02:26;;;;;;;0.10;0.10;;;10.50;1.00;;;;;;5053458;28;20041;-80
2023/10/28 06:04:52;;;;;;;0.82;0.38;;;10.50;1.00;;;;;;5050017;28;20052;-81
2023/10/28 06:07:19;;;;;;;0.30;0.30;;;10.50;1.00;;;;;;5051102;28;20037;-81
2023/10/28 06:09:47;;;;;;;0.20;0.20;;;10.50;1.00;;;;;;5051011;28;20029;-80
2023/10/28 06:12:14;;;;;;;0.63;0.30;;;10.60;1.00;;;;;;5051790;28;20048;-80
2023/10/28 06:14:43;;;;;;;0.00;0.00;;;10.60;1.00;;;;;;5052541;28;20037;-80
2023/10/28 06:17:10;;;;;;;0.43;0.43;;;10.60;1.00;;;;;;5051577;28;20045;-82
2023/10/28 06:19:36;;;;;;;0.50;0.50;;;10.70;1.00;;;;;;5052556;28;20033;-77
2023/10/28 06:22:03;;;;;;;0.00;0.00;;;10.70;1.00;;;;;;5051502;28;20036;-77
2023/10/28 06:24:29;;;;;;;0.10;0.10;;;10.70;1.00;;;;;;5049280;28;20029;-77
2023/10/28 06:26:57;;;;;;;0.10;0.10;;;10.70;1.00;;;;;;5045496;28;20047;-78
2023/10/28 06:29:23;;;;;;;0.38;0.38;;;10.70;1.00;;;;;;5050082;28;20040;-77
2023/10/28 06:31:50;;;;;;;0.20;0.20;;;10.70;1.00;;;;;;5052637;28;20037;-77
2023/10/28 06:34:16;;;;;;;0.35;0.35;;;10.80;1.00;;;;;;5050940;28;20481;-78
2023/10/28 06:36:42;;;;;;;0.10;0.10;;;10.80;1.00;;;;;;5050777;28;20044;-78
2023/10/28 06:39:09;;;;;;;0.25;0.25;;;10.80;1.00;;;;;;5050839;28;20033;-79
2023/10/28 06:41:35;;;;;;;0.20;0.20;;;10.90;1.00;;;;;;5050001;28;20033;-78
2023/10/28 06:44:05;;;;;;;0.32;0.28;;;10.90;1.00;;;;;;5051639;28;20025;-79
2023/10/28 06:46:32;;;;;;;0.20;0.20;;;10.90;1.00;;;;;;5048060;28;20025;-78
2023/10/28 06:48:59;;;;;;;0.00;0.00;;;10.90;1.00;;;;;;5051598;28;20029;-79
2023/10/28 06:51:25;;;;;;;2.65;0.75;;;10.90;1.00;;;;;;5044900;28;20036;-79
2023/10/28 06:53:52;;;;;;;0.22;0.22;;;10.90;1.00;;;;;;5050683;28;20040;-79
2023/10/28 06:56:18;;;;;;;0.38;0.38;;;10.90;1.00;;;;;;5031611;28;20482;-79
2023/10/28 06:58:44;;;;;;;0.47;0.47;;;10.90;1.00;;;;;;5051187;28;20038;-79
2023/10/28 07:01:10;;;;;;;4.47;1.08;;;10.90;1.00;;;;;;5052135;28;20032;-79
2023/10/28 07:03:40;;;;;;;0.47;0.47;;;10.90;1.00;;;;;;5050874;28;20397;-79
2023/10/28 07:06:14;;;;;;;0.47;0.45;;;10.90;1.00;;;;;;5053990;28;20036;-79
2023/10/28 07:08:41;;;;;;;0.08;0.05;;;10.90;1.00;;;;;;5058694;28;20454;-78
2023/10/28 07:11:07;;;;;;;0.88;0.40;;;10.90;1.00;;;;;;5033242;28;20029;-78
2023/10/28 07:13:34;;;;;;;0.10;0.10;;;11.00;1.00;;;;;;5032170;28;20474;-78
2023/10/28 07:16:03;;;;;;;0.05;0.05;;;11.00;1.00;;;;;;5047222;28;20046;-77
2023/10/28 07:18:31;;;;;;;0.00;0.00;;;11.10;1.00;;;;;;5050003;28;20060;-78
2023/10/28 07:20:58;;;;;;;0.10;0.10;;;11.10;1.00;;;;;;5029654;28;20378;-78
2023/10/28 07:23:27;;;;;;;0.10;0.10;;;11.10;1.00;;;;;;5049330;28;20040;-78
2023/10/28 07:25:54;;;;;;;0.05;0.05;;;11.10;1.00;;;;;;5049867;28;20033;-78
2023/10/28 07:28:21;;;;;;;0.45;0.32;;;11.20;1.00;;;;;;5049754;28;20048;-80
2023/10/28 07:30:50;;;;;;;0.45;0.38;;;11.20;1.00;;;;;;5061291;28;20052;-77
2023/10/28 07:33:21;;;;;;;0.40;0.20;;;11.10;1.00;;;;;;5055100;28;20033;-77
2023/10/28 07:35:48;;;;;;;0.10;0.10;;;11.20;1.00;;;;;;5045448;28;20383;-79
2023/10/28 07:38:15;;;;;;;0.10;0.10;;;11.20;1.00;;;;;;5048650;28;20033;-76
2023/10/28 07:40:41;;;;;;;0.03;0.03;;;11.20;1.00;;;;;;5049203;28;20025;-78
2023/10/28 07:43:12;;;;;;;0.17;0.17;;;11.30;1.00;;;;;;5048539;28;20037;-79
2023/10/28 07:45:39;;;;;;;0.00;0.00;;;11.30;1.00;;;;;;5047819;28;20382;-78
2023/10/28 07:48:09;;;;;;;0.00;0.00;;;11.30;1.00;;;;;;5051114;28;20051;-79
2023/10/28 07:50:39;;;;;;;0.10;0.10;;;11.40;1.00;;;;;;5051856;28;20055;-79
2023/10/28 07:53:05;;;;;;;0.03;0.03;;;11.40;1.00;;;;;;5050998;28;20036;-79
2023/10/28 07:55:33;;;;;;;0.10;0.10;;;11.40;1.00;;;;;;5048457;28;20112;-81
2023/10/28 07:57:59;;;;;;;1.40;0.40;;;11.50;1.00;;;;;;5049860;28;20040;-79
2023/10/28 08:00:29;;;;;;;0.00;0.00;;;11.40;1.00;;;;;;5050471;28;20033;-79
2023/10/28 08:02:55;;;;;;;0.10;0.10;;;11.40;1.00;;;;;;5049769;28;20044;-80
2023/10/28 08:05:21;;;;;;;0.10;0.10;;;11.40;1.00;;;;;;5048854;28;20032;-80
2023/10/28 08:07:48;;;;;;;0.40;0.40;;;11.40;1.00;;;;;;5050942;28;20040;-79
2023/10/28 08:10:16;;;;;;;0.00;0.00;;;11.30;1.00;;;;;;5030650;28;20037;-80
2023/10/28 08:12:43;;;;;;;0.00;0.00;;;11.30;1.00;;;;;;5050866;28;20037;-79
2023/10/28 08:15:09;;;;;;;0.10;0.10;;;11.20;1.00;;;;;;5049478;28;20385;-78
2023/10/28 08:17:36;;;;;;;4.07;0.50;;;11.20;1.00;;;;;;5048359;28;20041;-80
2023/10/28 08:20:05;;;;;;;0.30;0.30;;;11.20;1.00;;;;;;5049415;28;20032;-78
2023/10/28 08:22:32;;;;;;;0.10;0.10;;;11.20;1.00;;;;;;5047873;28;20032;-78
2023/10/28 08:24:58;;;;;;;0.10;0.10;;;11.20;1.00;;;;;;5050799;28;20037;-76
2023/10/28 08:27:24;;;;;;;0.47;0.43;;;11.30;1.00;;;;;;5048741;28;20438;-78
2023/10/28 08:29:51;;;;;;;0.43;0.43;;;11.30;1.00;;;;;;5054442;28;20032;-80
2023/10/28 08:32:18;;;;;;;0.30;0.28;;;11.30;1.00;;;;;;5049573;28;20041;-80
2023/10/28 08:34:44;;;;;;;0.30;0.25;;;11.40;1.00;;;;;;5048910;28;20033;-80
2023/10/28 08:37:13;;;;;;;0.20;0.17;;;11.50;1.00;;;;;;5049440;28;20029;-76
2023/10/28 08:39:41;;;;;;;2.60;0.35;;;11.60;1.00;;;;;;5048823;28;20025;-78
2023/10/28 08:42:07;;;;;;;0.10;0.10;;;11.80;1.00;;;;;;5050485;28;20040;-78
2023/10/28 08:44:34;;;;;;;0.20;0.20;;;11.90;1.00;;;;;;5047341;28;20260;-79
2023/10/28 08:47:06;;;;;;;1.33;1.23;;;11.90;1.00;;;;;;5048812;28;20033;-78
2023/10/28 08:49:42;;;;;;;0.20;0.20;;;11.90;1.00;;;;;;5046442;28;20025;-77
2023/10/28 08:52:11;;;;;;;0.10;0.10;;;12.00;1.00;;;;;;5052709;28;20048;-77
2023/10/28 08:54:39;;;;;;;0.15;0.15;;;12.10;1.00;;;;;;5047637;28;20028;-77
2023/10/28 08:57:07;;;;;;;0.13;0.13;;;12.10;1.00;;;;;;5048529;28;20485;-78
2023/10/28 08:59:33;;;;;;;1.75;1.08;;;12.20;1.00;;;;;;5047293;28;20040;-78
2023/10/28 09:02:00;;;;;;;1.20;0.65;;;12.30;1.00;;;;;;5042599;28;20099;-78
2023/10/28 09:04:27;;;;;;;0.73;0.45;;;12.40;99.90;;;;;;5049222;28;20100;-78
2023/10/28 09:06:53;;;;;;;0.45;0.28;;;12.60;99.90;;;;;;5049457;28;20791;-77
2023/10/28 09:09:21;;;;;;;3.75;0.50;;;12.80;99.90;;;;;;5046911;28;20037;-77
2023/10/28 09:11:51;;;;;;;0.47;0.47;;;13.00;99.90;;;;;;5049026;28;20033;-76
2023/10/28 09:14:17;;;;;;;0.20;0.20;;;13.50;99.90;;;;;;5044904;28;20050;-77
2023/10/28 09:16:43;;;;;;;0.50;0.50;;;13.40;99.90;;;;;;5047195;28;20053;-76
2023/10/28 09:19:21;;;;;;;0.00;0.00;;;13.50;99.90;;;;;;5051086;28;20489;-76
2023/10/28 09:21:48;;;;;;;0.10;0.10;;;13.80;99.90;;;;;;5030937;28;20040;-77
2023/10/28 09:24:18;;;;;;;0.10;0.10;;;14.10;99.90;;;;;;5048841;28;20044;-78
2023/10/28 09:26:46;;;;;;;0.28;0.17;;;14.30;99.90;;;;;;5049727;28;20025;-77
2023/10/28 09:29:23;;;;;;;0.20;0.20;;;14.00;99.90;;;;;;5052842;28;20036;-76
2023/10/28 09:31:50;;;;;;;0.13;0.13;;;14.00;99.90;;;;;;5049520;28;20040;-76
2023/10/28 09:34:16;;;;;;;0.10;0.10;;;13.90;99.90;;;;;;5030974;28;20049;-78
2023/10/28 09:36:43;;;;;;;0.40;0.40;;;13.80;99.90;;;;;;5050365;28;20025;-79
2023/10/28 09:39:12;;;;;;;0.30;0.30;;;13.90;99.90;;;;;;5051961;28;20029;-77
2023/10/28 09:41:40;;;;;;;0.25;0.25;;;13.90;99.90;;;;;;5049353;28;20044;-81
2023/10/28 09:44:08;;;;;;;0.15;0.10;;;14.00;99.90;;;;;;5035391;28;20033;-82
2023/10/28 09:46:36;;;;;;;0.47;0.35;;;14.00;99.90;;;;;;5055312;28;20048;-79
2023/10/28 09:49:07;;;;;;;0.00;0.00;;;14.10;99.90;;;;;;5053780;28;20038;-79
2023/10/28 09:51:37;;;;;;;2.42;0.47;;;14.10;99.90;;;;;;5052656;28;20039;-80
2023/10/28 09:54:08;;;;;;;1.50;0.82;;;14.20;99.90;;;;;;5035309;28;20037;-76
2023/10/28 09:56:37;;;;;;;0.32;0.32;;;14.20;99.90;;;;;;5032206;28;20394;-77
2023/10/28 09:59:24;;;;;;;0.00;0.00;;;14.20;99.90;;;;;;5050930;28;20028;-77
2023/10/28 10:02:11;;;;;;;0.45;0.43;;;14.40;99.90;;;;;;5052952;28;20029;-75
2023/10/28 10:04:58;;;;;;;0.35;0.35;;;14.70;99.90;;;;;;5050130;28;20025;-74
2023/10/28 10:07:25;;;;;;;0.08;0.08;;;14.60;99.90;;;;;;5050441;28;20033;-75
2023/10/28 10:09:52;;;;;;;0.00;0.00;;;14.60;99.90;;;;;;5058993;28;20040;-75
2023/10/28 10:12:18;;;;;;;0.10;0.10;;;14.40;99.90;;;;;;5072367;28;20508;-78
2023/10/28 10:14:46;;;;;;;0.30;0.30;;;14.30;99.90;;;;;;5058920;28;20025;-77
2023/10/28 10:17:35;;;;;;;0.35;0.32;;;14.20;99.90;;;;;;5052026;28;20056;-77
2023/10/28 10:20:04;;;;;;;4.68;1.13;;;14.20;99.90;;;;;;5050176;28;20040;-79
2023/10/28 10:22:31;;;;;;;2.10;1.42;;;14.20;99.90;;;;;;5049500;28;20048;-80
2023/10/28 10:24:57;;;;;;;0.15;0.15;;;14.20;99.90;;;;;;5049963;28;20049;-78
2023/10/28 10:27:53;;;;;;;1.08;0.65;;;14.20;99.90;;;;;;5050852;28;20037;-79
2023/10/28 10:30:19;;;;;;;0.20;0.20;;;14.30;99.90;;;;;;5026846;28;20052;-79
2023/10/28 10:32:47;;;;;;;0.10;0.10;;;14.40;99.90;;;;;;5052159;28;20036;-79
2023/10/28 10:35:30;;;;;;;2.67;0.60;;;14.40;99.90;;;;;;5052452;28;20028;-78
2023/10/28 10:38:06;;;;;;;0.47;0.47;;;14.40;99.90;;;;;;5041248;28;20040;-78
2023/10/28 10:40:47;;;;;;;0.00;0.00;;;14.40;99.90;;;;;;5023768;28;20048;-78
2023/10/28 10:43:19;;;;;;;0.90;0.52;;;14.50;99.90;;;;;;5048649;28;20056;-77
2023/10/28 10:45:45;;;;;;;0.05;0.05;;;14.50;99.90;;;;;;5050969;28;20052;-78
2023/10/28 10:48:12;;;;;;;2.90;1.75;;;14.60;99.90;;;;;;5052418;28;20036;-78
2023/10/28 10:50:40;;;;;;;0.30;0.30;;;14.60;99.90;;;;;;5053595;28;20476;-77
2023/10/28 10:53:06;;;;;;;0.63;0.52;;;14.80;99.90;;;;;;5052118;28;20040;-78
2023/10/28 10:55:32;;;;;;;0.50;0.40;;;14.80;94.00;;;;;;5050456;28;20041;-78
2023/10/28 10:57:59;;;;;;;0.20;0.20;;;14.70;99.90;;;;;;5049897;28;20033;-78
2023/10/28 11:00:26;;;;;;;0.28;0.28;;;14.60;99.90;;;;;;5051981;28;20037;-78
2023/10/28 11:02:57;;;;;;;0.25;0.17;;;14.50;99.90;;;;;;5050463;28;20477;-78
2023/10/28 11:05:24;;;;;;;0.10;0.10;;;14.50;99.90;;;;;;5050336;28;20033;-78
2023/10/28 11:07:50;;;;;;;0.10;0.10;;;14.50;99.90;;;;;;5051064;28;20033;-78
2023/10/28 11:10:19;;;;;;;0.08;0.08;;;14.60;91.50;;;;;;5034412;28;20033;-75
2023/10/28 11:12:45;;;;;;;0.08;0.08;;;14.50;92.80;;;;;;5051844;28;20037;-78
2023/10/28 11:15:12;;;;;;;0.30;0.30;;;14.50;85.20;;;;;;5051255;28;20041;-77
2023/10/28 11:17:39;;;;;;;1.45;1.08;;;14.70;68.80;;;;;;5049316;28;20500;-77
2023/10/28 11:20:06;;;;;;;1.85;0.50;;;14.70;60.80;;;;;;5051795;28;20037;-78
2023/10/28 11:22:33;;;;;;;0.20;0.20;;;14.60;68.00;;;;;;5050585;28;20462;-77
2023/10/28 11:25:03;;;;;;;0.10;0.10;;;14.50;81.20;;;;;;5048683;28;20060;-78
2023/10/28 11:27:31;;;;;;;0.38;0.35;;;14.40;86.90;;;;;;5049666;28;20028;-78
2023/10/28 11:29:58;;;;;;;1.23;1.15;;;14.30;95.20;;;;;;5051138;28;20033;-78
2023/10/28 11:32:28;;;;;;;0.10;0.10;;;14.20;95.00;;;;;;5050662;28;20037;-77
2023/10/28 11:34:59;;;;;;;0.47;0.47;;;14.30;98.80;;;;;;5049519;28;20029;-76
2023/10/28 11:37:25;;;;;;;;;;;14.20;95.60;;;;;;5050943;28;20036;-77
2023/10/28 11:39:51;;;;;;;0.00;0.00;;;14.20;99.90;;;;;;5050713;28;19909;-77
2023/10/28 11:42:18;;;;;;;0.32;0.28;;;14.10;99.90;;;;;;5051779;28;20029;-76
2023/10/28 11:44:51;;;;;;;0.40;0.32;;;14.00;99.90;;;;;;5048611;28;21037;-78
2023/10/28 11:47:20;;;;;;;2.00;0.80;;;14.00;99.90;;;;;;5050813;28;20044;-77
2023/10/28 11:49:47;;;;;;;0.13;0.13;;;14.00;99.90;;;;;;5049812;28;20033;-79
2023/10/28 11:52:13;;;;;;;5.57;1.30;;;13.80;99.90;;;;;;5051804;28;20035;-80
2023/10/28 11:54:40;;;;;;;1.40;0.82;;;13.70;99.90;;;;;;5040161;28;20282;-79
2023/10/28 11:57:06;;;;;;;0.47;0.32;;;13.60;99.90;;;;;;5048606;28;20026;-79
2023/10/28 11:59:33;;;;;;;0.13;0.13;;;13.50;99.90;;;;;;5049127;28;20335;-82
2023/10/28 12:01:59;;;;;;;0.47;0.47;;;13.30;99.90;;;;;;5050372;28;20032;-84
2023/10/28 12:04:25;;;;;;;2.00;0.73;;;13.20;99.90;;;;;;5044642;28;20429;-82
2023/10/28 12:06:52;;;;;;;5.45;2.40;;;13.10;99.90;;;;;;5047696;28;20046;-82
2023/10/28 12:09:18;;;;;;;2.72;0.70;;;13.00;99.90;;;;;;5051414;28;20033;-83
2023/10/28 12:11:46;;;;;;;1.17;0.90;;;12.80;99.90;;;;;;5049220;28;20033;-81
2023/10/28 12:14:12;;;;;;;1.33;0.95;;;12.90;99.90;;;;;;5051424;28;20059;-83
2023/10/28 12:16:38;;;;;;;0.38;0.38;;;12.90;99.90;;;;;;5042519;28;21026;-83
2023/10/28 12:19:06;;;;;;;1.58;0.98;;;12.90;99.90;;;;;;5048599;28;20025;-82
2023/10/28 12:21:33;;;;;;;0.30;0.30;;;12.80;99.90;;;;;;5052997;28;20029;-84
2023/10/28 12:23:59;;;;;;;1.13;0.68;;;12.80;99.90;;;;;;5052089;28;20032;-80
2023/10/28 12:26:26;;;;;;;0.57;0.57;;;12.70;99.90;;;;;;5048653;28;20029;-82
2023/10/28 12:28:52;;;;;;;2.83;0.82;;;12.70;99.90;;;;;;5051874;28;20033;-85
2023/10/28 12:31:22;;;;;;;0.30;0.30;;;12.70;99.90;;;;;;5051907;28;20073;-87
2023/10/28 12:33:48;;;;;;;0.45;0.45;;;12.70;99.90;;;;;;5053072;28;20039;-86
2023/10/28 12:36:16;;;;;;;1.00;0.80;;;12.70;99.90;;;;;;5052929;28;20036;-85
2023/10/28 12:38:44;;;;;;;2.20;0.20;;;12.70;99.90;;;;;;5051560;28;20064;-86
2023/10/28 12:41:14;;;;;;;0.65;0.65;;;12.70;99.90;;;;;;5049788;28;20036;-88
2023/10/28 12:43:40;;;;;;;1.25;1.15;;;12.70;99.90;;;;;;5048504;28;20221;-86
2023/10/28 12:46:07;;;;;;;1.83;1.05;;;12.70;99.90;;;;;;5048927;28;20052;-83
2023/10/28 12:48:33;;;;;;;1.73;0.63;;;12.60;99.90;;;;;;5049730;28;20028;-86
2023/10/28 12:51:00;;;;;;;0.13;0.13;;;12.70;99.90;;;;;;5062362;28;20029;-83
2023/10/28 12:53:29;;;;;;;0.30;0.30;;;12.60;99.90;;;;;;5063002;28;20040;-84
2023/10/28 12:55:56;;;;;;;0.38;0.38;;;12.50;99.90;;;;;;5050174;28;20051;-87